Time;durP1;ratioP1;P1;durP2;ratioP2;P2;SDS_P1;SDS_P2;PMS_P1;PMS_P2;Temp;Humidity;BMP_temperature;BMP_pressure;BME280_temperature;BME280_humidity;BME280_pressure;Samples;Min_cycle;Max_cycle;Signal;HPM_P1;HPM_P2
2022/12/18 00:01:34;;;;;;;16.87;9.20;;;;;;;1.55;42.51;102586.88;4888028;29;20541;-58
2022/12/18 00:04:01;;;;;;;29.17;11.60;;;;;;;1.53;42.05;102585.16;4865825;29;20465;-58
2022/12/18 00:06:27;;;;;;;28.00;10.03;;;;;;;1.53;42.47;102578.09;4882236;29;20478;-58
2022/12/18 00:08:54;;;;;;;27.47;10.60;;;;;;;1.52;42.09;102586.91;4877974;29;20025;-58
2022/12/18 00:11:21;;;;;;;31.70;9.87;;;;;;;1.50;42.45;102578.16;4879460;29;20490;-59
2022/12/18 00:13:47;;;;;;;27.27;9.93;;;;;;;1.48;42.27;102579.94;4874048;29;20033;-59
2022/12/18 00:16:16;;;;;;;24.60;10.20;;;;;;;1.51;42.67;102593.09;4859020;29;20490;-59
2022/12/18 00:18:42;;;;;;;22.13;9.50;;;;;;;1.51;42.25;102601.00;4877496;29;20177;-58
2022/12/18 00:21:10;;;;;;;22.53;10.03;;;;;;;1.48;41.22;102594.94;4877227;29;20099;-58
2022/12/18 00:23:38;;;;;;;20.10;8.53;;;;;;;1.45;41.45;102593.19;4878389;29;20033;-58
2022/12/18 00:26:06;;;;;;;26.53;10.40;;;;;;;1.47;41.12;102595.81;4863360;29;20415;-58
2022/12/18 00:28:32;;;;;;;24.27;9.17;;;;;;;1.43;41.44;102589.72;4876436;29;20037;-58
2022/12/18 00:31:02;;;;;;;27.13;11.33;;;;;;;1.41;41.73;102574.81;4859493;29;20178;-59
2022/12/18 00:33:28;;;;;;;23.73;9.23;;;;;;;1.39;42.43;102572.22;4875470;29;20025;-59
2022/12/18 00:35:53;;;;;;;21.53;10.03;;;;;;;1.34;41.16;102579.31;4886361;29;20578;-59
2022/12/18 00:38:18;;;;;;;29.63;9.63;;;;;;;1.32;41.14;102575.84;4853056;29;20065;-58
2022/12/18 00:40:44;;;;;;;27.53;9.47;;;;;;;1.28;41.85;102574.19;4853675;29;20033;-59
2022/12/18 00:43:09;;;;;;;23.10;9.83;;;;;;;1.27;41.07;102572.44;4868712;29;20033;-58
2022/12/18 00:45:34;;;;;;;18.63;8.87;;;;;;;1.27;41.31;102569.78;4869339;29;20037;-59
2022/12/18 00:48:00;;;;;;;19.93;9.77;;;;;;;1.22;41.39;102568.13;4869237;29;20128;-59
2022/12/18 00:50:25;;;;;;;27.37;9.67;;;;;;;1.25;41.09;102574.22;4853590;29;20045;-59
2022/12/18 00:52:51;;;;;;;26.47;10.43;;;;;;;1.21;42.23;102566.38;4853385;29;20056;-59
2022/12/18 00:55:17;;;;;;;24.07;8.60;;;;;;;1.23;42.04;102576.00;4854300;29;20077;-58
2022/12/18 00:57:43;;;;;;;18.87;9.73;;;;;;;1.19;42.09;102582.25;4867517;29;20049;-59
2022/12/18 01:00:12;;;;;;;21.63;9.10;;;;;;;1.20;40.95;102586.66;4869310;29;20485;-58
2022/12/18 01:02:38;;;;;;;25.47;10.00;;;;;;;1.16;41.61;102569.09;4916642;29;20056;-59
2022/12/18 01:05:04;;;;;;;28.07;10.27;;;;;;;1.16;41.35;102574.38;4905317;29;20040;-59
2022/12/18 01:07:29;;;;;;;26.67;10.43;;;;;;;1.14;42.03;102577.03;4905347;29;20047;-58
2022/12/18 01:09:54;;;;;;;20.07;9.53;;;;;;;1.14;42.27;102570.91;4921772;29;20036;-59
2022/12/18 01:12:20;;;;;;;18.23;8.83;;;;;;;1.15;42.31;102562.06;4922423;29;20574;-59
2022/12/18 01:14:45;;;;;;;23.53;9.13;;;;;;;1.16;41.22;102553.28;4905604;29;20095;-58
2022/12/18 01:17:11;;;;;;;30.37;12.10;;;;;;;1.16;41.22;102553.28;4923088;29;20040;-59
2022/12/18 01:19:36;;;;;;;18.10;8.23;;;;;;;1.18;41.86;102556.75;4904952;29;20036;-58
2022/12/18 01:22:01;;;;;;;28.47;10.90;;;;;;;1.19;41.15;102561.13;4922061;29;20043;-59
2022/12/18 01:24:27;;;;;;;18.13;7.77;;;;;;;1.20;41.29;102562.00;4905699;29;20040;-59
2022/12/18 01:26:52;;;;;;;15.27;9.57;;;;;;;1.22;42.31;102562.84;4874545;29;20035;-59
2022/12/18 01:29:18;;;;;;;19.40;7.90;;;;;;;1.24;42.40;102567.19;4904338;29;20077;-59
2022/12/18 01:31:43;;;;;;;18.07;7.13;;;;;;;1.29;41.58;102569.75;4888750;29;20036;-59
2022/12/18 01:34:09;;;;;;;25.57;8.60;;;;;;;1.32;42.03;102570.56;4904684;29;20087;-59
2022/12/18 01:36:37;;;;;;;18.80;8.80;;;;;;;1.40;42.29;102584.50;4905551;29;20031;-58
2022/12/18 01:39:10;;;;;;;18.93;7.33;;;;;;;1.44;41.44;102580.03;4905072;29;20404;-59
2022/12/18 01:44:48;;;;;;;18.23;7.30;;;;;;;1.45;42.03;102590.56;4870115;29;20044;-59
2022/12/18 01:47:43;;;;;;;17.40;8.13;;;;;;;1.46;42.33;102573.81;4922257;29;20039;-59
2022/12/18 01:50:15;;;;;;;16.27;6.57;;;;;;;1.47;42.17;102565.03;4922028;29;20142;-58
2022/12/18 01:52:47;;;;;;;20.97;8.87;;;;;;;1.49;41.93;102565.84;4904766;29;20036;-58
2022/12/18 01:55:13;;;;;;;24.47;8.17;;;;;;;1.52;41.57;102571.06;4904251;29;20047;-59
2022/12/18 01:57:39;;;;;;;14.20;6.80;;;;;;;1.54;42.41;102558.72;4889330;29;20394;-59
2022/12/18 02:00:09;;;;;;;27.23;9.27;;;;;;;1.55;42.24;102552.53;4889601;29;20028;-59
2022/12/18 02:02:34;;;;;;;16.67;6.83;;;;;;;1.61;42.01;102563.00;4904574;29;20639;-58
2022/12/18 02:05:00;;;;;;;20.70;7.43;;;;;;;1.63;42.00;102555.91;4887868;29;20071;-59
2022/12/18 02:07:31;;;;;;;21.30;8.57;;;;;;;1.65;42.47;102554.09;4905059;29;20037;-58
2022/12/18 02:10:05;;;;;;;20.93;7.00;;;;;;;1.68;41.73;102556.66;4904489;29;20036;-59
2022/12/18 02:12:42;;;;;;;21.20;8.30;;;;;;;1.64;41.77;102560.28;4888166;29;20513;-59
2022/12/18 02:15:15;;;;;;;21.43;7.37;;;;;;;1.67;42.48;102562.00;4889162;29;20456;-58
2022/12/18 02:17:55;;;;;;;25.23;8.23;;;;;;;1.65;41.10;102562.00;4905226;29;20040;-58
2022/12/18 02:20:43;;;;;;;22.73;8.70;;;;;;;1.63;42.50;102555.91;4887996;29;20038;-59
2022/12/18 02:23:17;;;;;;;14.30;6.77;;;;;;;1.63;42.09;102544.47;4905226;29;20032;-59
2022/12/18 02:26:15;;;;;;;18.17;7.60;;;;;;;1.58;40.96;102547.19;4888803;29;20036;-59
2022/12/18 02:29:14;;;;;;;18.07;7.97;;;;;;;1.54;41.91;102560.47;4888514;29;20036;-58
2022/12/18 02:31:43;;;;;;;11.90;6.13;;;;;;;1.48;41.45;102553.53;4887120;29;20520;-58
2022/12/18 02:34:10;;;;;;;15.50;6.53;;;;;;;1.48;41.87;102550.91;4903198;29;20044;-59
2022/12/18 02:36:38;;;;;;;17.43;7.47;;;;;;;1.49;41.39;102552.66;4872627;29;20060;-59
2022/12/18 02:39:05;;;;;;;20.97;8.47;;;;;;;1.46;41.35;102547.44;4889843;29;20039;-59
2022/12/18 02:41:31;;;;;;;21.47;6.53;;;;;;;1.51;41.91;102537.66;4889387;29;20494;-59
2022/12/18 02:44:01;;;;;;;15.23;7.00;;;;;;;1.52;41.33;102542.03;4889346;29;20047;-58
2022/12/18 02:46:29;;;;;;;15.23;6.30;;;;;;;1.51;42.11;102540.28;4904816;29;20036;-59
2022/12/18 02:49:10;;;;;;;14.27;6.03;;;;;;;1.53;42.59;102535.00;4921801;29;20039;-58
2022/12/18 02:51:44;;;;;;;17.77;6.07;;;;;;;1.50;42.07;102519.22;4920568;29;20035;-58
2022/12/18 02:54:18;;;;;;;19.27;6.57;;;;;;;1.54;41.75;102519.09;4905591;29;20024;-59
2022/12/18 02:56:51;;;;;;;16.13;6.23;;;;;;;1.58;42.94;102526.09;4889191;29;20521;-59
2022/12/18 02:59:22;;;;;;;15.43;6.13;;;;;;;1.57;42.13;102519.03;4888132;29;20036;-59
2022/12/18 03:02:14;;;;;;;17.40;6.57;;;;;;;1.58;41.72;102520.81;4888396;29;20044;-59
2022/12/18 03:04:44;;;;;;;11.50;5.00;;;;;;;1.55;42.24;102512.94;4903891;29;20040;-59
2022/12/18 03:07:18;;;;;;;12.73;5.57;;;;;;;1.54;42.22;102502.38;4889432;29;20278;-59
2022/12/18 03:09:47;;;;;;;14.77;5.30;;;;;;;1.58;42.05;102510.25;4904156;29;20375;-58
2022/12/18 03:12:23;;;;;;;16.83;6.00;;;;;;;1.59;42.20;102506.69;4888967;29;20127;-59
2022/12/18 03:15:06;;;;;;;13.83;6.23;;;;;;;1.58;42.46;102493.53;4908150;29;20051;-59
2022/12/18 03:17:33;;;;;;;16.20;6.65;;;;;;;1.61;42.88;102499.63;4925431;29;20039;-58
2022/12/18 03:20:04;;;;;;;10.37;5.13;;;;;;;1.60;42.66;102497.88;4908589;29;20099;-58
2022/12/18 03:22:32;;;;;;;13.40;5.47;;;;;;;1.63;41.94;102497.81;4908594;29;20033;-58
2022/12/18 03:24:59;;;;;;;14.53;5.60;;;;;;;1.60;41.68;102497.88;4891813;29;20047;-59
2022/12/18 03:27:26;;;;;;;15.10;6.10;;;;;;;1.66;42.59;102494.22;4908115;29;20059;-59
2022/12/18 03:30:12;;;;;;;11.20;5.40;;;;;;;1.66;41.90;102492.47;4892662;29;20032;-59
2022/12/18 03:33:03;;;;;;;14.17;4.93;;;;;;;1.67;42.72;102482.78;4909431;29;20032;-58
2022/12/18 03:35:32;;;;;;;12.33;6.13;;;;;;;1.71;42.46;102492.34;4909093;29;20110;-59
2022/12/18 03:37:57;;;;;;;13.03;6.10;;;;;;;1.72;41.49;102492.34;4893296;29;20056;-58
2022/12/18 03:40:28;;;;;;;13.53;6.03;;;;;;;1.69;42.63;102489.75;4908343;29;20391;-59
2022/12/18 03:43:05;;;;;;;14.43;5.30;;;;;;;1.72;42.46;102487.06;4908455;29;20032;-59
2022/12/18 03:45:37;;;;;;;15.53;5.73;;;;;;;1.73;42.12;102488.78;4907596;29;20039;-59
2022/12/18 03:48:11;;;;;;;10.97;5.33;;;;;;;1.75;42.07;102487.00;4891820;29;20091;-58
2022/12/18 03:50:40;;;;;;;7.23;4.43;;;;;;;1.76;41.93;102499.28;4907709;29;20044;-60
2022/12/18 03:53:11;;;;;;;13.57;5.87;;;;;;;1.79;42.70;102492.22;4924448;29;20036;-60
2022/12/18 03:55:37;;;;;;;12.60;6.07;;;;;;;1.80;42.39;102484.25;4891812;29;20040;-60
2022/12/18 03:58:03;;;;;;;9.00;4.70;;;;;;;1.77;42.19;102471.97;4874956;29;20040;-60
2022/12/18 04:00:30;;;;;;;15.57;5.80;;;;;;;1.81;41.82;102485.13;4907009;29;20032;-58
2022/12/18 04:02:57;;;;;;;10.87;4.10;;;;;;;1.83;42.75;102488.59;4907876;29;20063;-58
2022/12/18 04:05:24;;;;;;;17.97;5.20;;;;;;;1.84;42.57;102485.94;4892982;29;20041;-58
2022/12/18 04:07:50;;;;;;;9.47;5.33;;;;;;;1.86;41.90;102488.53;4907862;29;20032;-58
2022/12/18 04:10:16;;;;;;;11.70;4.73;;;;;;;1.86;41.98;102480.59;4891650;29;20043;-58
2022/12/18 04:12:42;;;;;;;8.83;4.73;;;;;;;1.89;42.86;102484.06;4907473;29;20039;-58
2022/12/18 04:15:08;;;;;;;19.43;5.33;;;;;;;1.91;41.74;102471.66;4893387;29;20032;-58
2022/12/18 04:17:34;;;;;;;13.97;4.67;;;;;;;1.94;41.56;102476.88;4891202;29;20040;-58
2022/12/18 04:19:59;;;;;;;7.40;4.20;;;;;;;1.95;42.88;102472.47;4909100;29;20063;-58
2022/12/18 04:22:25;;;;;;;7.23;4.20;;;;;;;1.96;42.45;102468.91;4925503;29;20036;-58
2022/12/18 04:24:50;;;;;;;15.03;4.73;;;;;;;1.97;42.50;102470.66;4907045;29;20091;-58
2022/12/18 04:27:15;;;;;;;12.70;5.30;;;;;;;2.00;42.33;102470.59;4892818;29;20115;-58
2022/12/18 04:29:41;;;;;;;12.00;4.73;;;;;;;2.04;42.90;102467.00;4892487;29;20043;-59
2022/12/18 04:32:07;;;;;;;7.57;4.47;;;;;;;2.02;42.58;102456.44;4891983;29;20032;-58
2022/12/18 04:34:32;;;;;;;19.37;5.13;;;;;;;2.09;43.16;102465.13;4906449;29;20041;-58
2022/12/18 04:36:58;;;;;;;10.17;5.00;;;;;;;2.08;42.43;102453.66;4924374;29;20047;-60
2022/12/18 04:39:23;;;;;;;12.47;4.33;;;;;;;2.12;42.65;102465.03;4907484;29;20051;-58
2022/12/18 04:41:48;;;;;;;13.97;4.73;;;;;;;2.11;42.92;102458.00;4906975;29;20024;-58
2022/12/18 04:44:14;;;;;;;8.93;4.57;;;;;;;2.15;42.99;102467.63;4891059;29;20032;-58
2022/12/18 04:46:39;;;;;;;6.57;4.40;;;;;;;2.18;41.99;102476.31;4874777;29;20032;-58
2022/12/18 04:49:05;;;;;;;17.83;4.47;;;;;;;2.19;43.17;102487.78;4924835;29;20506;-58
2022/12/18 04:51:30;;;;;;;11.03;4.97;;;;;;;2.24;42.27;102491.16;4907446;29;20088;-58
2022/12/18 04:53:56;;;;;;;10.00;4.13;;;;;;;2.27;42.76;102488.47;4890730;29;20114;-58
2022/12/18 04:56:21;;;;;;;11.90;5.00;;;;;;;2.26;43.05;102484.94;4906358;29;20040;-58
2022/12/18 04:58:47;;;;;;;16.03;4.90;;;;;;;2.28;43.13;102488.44;4923047;29;20056;-58
2022/12/18 05:01:14;;;;;;;8.47;4.13;;;;;;;2.27;41.94;102491.97;4905113;29;20132;-58
2022/12/18 05:03:39;;;;;;;10.83;4.70;;;;;;;2.26;42.44;102479.66;4890111;29;20092;-58
2022/12/18 05:06:06;;;;;;;7.87;5.13;;;;;;;2.32;42.99;102484.81;4922578;29;20400;-58
2022/12/18 05:08:32;;;;;;;12.17;5.27;;;;;;;2.33;42.52;102489.19;4889428;29;20060;-58
2022/12/18 05:11:09;;;;;;;12.13;4.60;;;;;;;2.32;41.70;102490.09;4905810;29;20401;-58
2022/12/18 05:13:35;;;;;;;9.73;4.80;;;;;;;2.32;42.56;102478.63;4905190;29;20032;-58
2022/12/18 05:16:00;;;;;;;12.53;4.67;;;;;;;2.27;42.18;102470.81;4905307;29;20501;-58
2022/12/18 05:18:26;;;;;;;11.47;5.53;;;;;;;2.19;41.69;102471.91;4905280;29;20032;-58
2022/12/18 05:20:52;;;;;;;10.00;4.30;;;;;;;2.18;41.40;102471.03;4906090;29;20031;-59
2022/12/18 05:23:18;;;;;;;12.37;4.97;;;;;;;2.13;42.53;102466.75;4889835;29;20462;-58
2022/12/18 05:25:50;;;;;;;9.40;4.23;;;;;;;2.08;41.73;102472.16;4907865;29;20032;-58
2022/12/18 05:28:16;;;;;;;11.90;5.00;;;;;;;2.09;42.35;102483.63;4906145;29;20068;-58
2022/12/18 05:30:41;;;;;;;12.07;5.60;;;;;;;2.06;41.62;102484.56;4922202;29;20040;-58
2022/12/18 05:33:06;;;;;;;15.40;5.23;;;;;;;2.06;42.44;102481.03;4922615;29;20083;-58
2022/12/18 05:35:32;;;;;;;13.40;4.93;;;;;;;2.05;42.71;102489.84;4905809;29;20038;-58
2022/12/18 05:37:57;;;;;;;11.23;5.07;;;;;;;2.06;42.78;102496.88;4890124;29;20113;-60
2022/12/18 05:40:22;;;;;;;9.43;5.60;;;;;;;2.04;42.03;102488.97;4921949;29;20032;-58
2022/12/18 05:42:48;;;;;;;16.03;5.30;;;;;;;2.04;42.06;102480.22;4905101;29;20028;-58
2022/12/18 05:45:13;;;;;;;13.17;5.73;;;;;;;2.03;41.58;102478.47;4922627;29;20025;-58
2022/12/18 05:47:38;;;;;;;12.20;5.60;;;;;;;2.03;42.62;102473.19;4889878;29;20123;-58
2022/12/18 05:50:04;;;;;;;14.73;4.70;;;;;;;2.01;41.61;102478.47;4906454;29;20048;-58
2022/12/18 05:52:30;;;;;;;10.17;5.27;;;;;;;2.00;42.10;102475.88;4904928;29;20063;-58
2022/12/18 05:54:55;;;;;;;7.77;5.10;;;;;;;1.98;42.82;102477.69;4906209;29;20409;-58
2022/12/18 05:57:21;;;;;;;11.53;4.63;;;;;;;1.97;41.81;102481.22;4904945;29;20048;-59
2022/12/18 05:59:46;;;;;;;13.97;5.83;;;;;;;1.99;42.94;102490.00;4906217;29;20040;-58
2022/12/18 06:02:12;;;;;;;10.67;4.43;;;;;;;1.97;41.70;102486.50;4902794;29;20052;-58
2022/12/18 06:04:37;;;;;;;20.77;5.80;;;;;;;1.99;41.69;102479.41;4902999;29;20048;-58
2022/12/18 06:07:02;;;;;;;15.87;5.87;;;;;;;2.01;42.37;102477.63;4902145;29;20525;-58
2022/12/18 06:09:29;;;;;;;20.27;6.37;;;;;;;1.95;42.87;102464.56;4902322;29;20043;-58
2022/12/18 06:11:54;;;;;;;11.57;4.90;;;;;;;2.00;41.81;102460.03;4902669;29;20033;-58
2022/12/18 06:14:19;;;;;;;11.43;5.67;;;;;;;2.01;41.32;102469.72;4904444;29;20033;-58
2022/12/18 06:16:45;;;;;;;13.90;6.97;;;;;;;2.00;41.44;102481.16;4904580;29;20100;-58
2022/12/18 06:19:14;;;;;;;9.87;5.37;;;;;;;1.98;41.81;102480.34;4904451;29;20043;-58
2022/12/18 06:21:39;;;;;;;11.73;5.43;;;;;;;1.96;42.64;102468.91;4902026;29;20036;-58
2022/12/18 06:24:05;;;;;;;13.20;6.27;;;;;;;1.95;41.26;102472.47;4885814;29;20028;-58
2022/12/18 06:26:31;;;;;;;10.87;5.23;;;;;;;1.93;41.46;102484.84;4902422;29;20039;-58
2022/12/18 06:28:56;;;;;;;13.17;4.73;;;;;;;1.86;42.42;102484.13;4903062;29;20040;-58
2022/12/18 06:31:22;;;;;;;10.83;4.90;;;;;;;1.86;41.32;102491.16;4903266;29;20037;-58
2022/12/18 06:33:47;;;;;;;11.93;4.93;;;;;;;1.83;42.38;102483.31;4903488;29;20042;-58
2022/12/18 06:36:13;;;;;;;14.47;5.80;;;;;;;1.80;41.92;102483.38;4886605;29;20033;-58
2022/12/18 06:38:42;;;;;;;15.10;6.10;;;;;;;1.76;41.38;102488.72;4886433;29;20097;-58
2022/12/18 06:41:11;;;;;;;12.87;5.17;;;;;;;1.73;41.63;102491.41;4886651;29;20074;-58
2022/12/18 06:43:37;;;;;;;15.17;5.10;;;;;;;1.71;41.72;102490.59;4870642;29;20036;-58
2022/12/18 06:46:03;;;;;;;8.70;5.03;;;;;;;1.65;42.06;102490.72;4902165;29;20037;-58
2022/12/18 06:48:29;;;;;;;14.50;4.70;;;;;;;1.67;42.41;102488.06;4904186;29;20072;-58
2022/12/18 06:50:54;;;;;;;8.87;4.30;;;;;;;1.66;41.85;102487.19;4906375;29;20037;-58
2022/12/18 06:53:20;;;;;;;15.43;5.23;;;;;;;1.66;42.27;102476.63;4906471;29;20032;-58
2022/12/18 06:55:45;;;;;;;11.93;5.37;;;;;;;1.67;42.59;102482.78;4889606;29;20111;-61
2022/12/18 06:58:10;;;;;;;11.47;4.97;;;;;;;1.67;41.44;102473.09;4904758;29;20040;-58
2022/12/18 07:00:36;;;;;;;15.17;5.70;;;;;;;1.68;41.48;102469.53;4904831;29;20040;-58
2022/12/18 07:03:01;;;;;;;19.83;5.97;;;;;;;1.71;41.63;102474.75;4874023;29;20067;-58
2022/12/18 07:05:27;;;;;;;14.43;6.10;;;;;;;1.72;42.13;102475.63;4904319;29;20406;-58
2022/12/18 07:07:52;;;;;;;11.00;5.10;;;;;;;1.73;42.56;102478.22;4872591;29;20101;-58
2022/12/18 07:10:17;;;;;;;14.70;5.63;;;;;;;1.75;42.79;102467.63;4903523;29;20040;-59
2022/12/18 07:12:43;;;;;;;14.10;5.03;;;;;;;1.79;41.71;102471.09;4903976;29;20116;-58
2022/12/18 07:15:09;;;;;;;14.87;5.60;;;;;;;1.81;42.18;102459.59;4888730;29;20390;-61
2022/12/18 07:17:34;;;;;;;13.17;6.23;;;;;;;1.82;42.59;102461.31;4903936;29;20047;-60
2022/12/18 07:19:59;;;;;;;18.07;5.83;;;;;;;1.84;41.81;102458.63;4903896;29;20047;-58
2022/12/18 07:22:25;;;;;;;12.27;5.13;;;;;;;1.86;41.74;102462.97;4904112;29;20059;-58
2022/12/18 07:24:51;;;;;;;12.63;5.30;;;;;;;1.91;41.93;102468.16;4905023;29;20028;-58
2022/12/18 07:27:16;;;;;;;16.93;5.27;;;;;;;1.93;41.72;102448.72;4904695;29;20084;-58
2022/12/18 07:29:42;;;;;;;11.53;5.37;;;;;;;1.96;42.58;102439.84;4904073;29;20063;-58
2022/12/18 07:32:08;;;;;;;16.57;6.10;;;;;;;1.99;42.34;102431.84;4888491;29;20064;-59
2022/12/18 07:34:34;;;;;;;15.30;7.07;;;;;;;2.03;41.96;102436.19;4888239;29;20463;-58
2022/12/18 07:36:59;;;;;;;19.17;6.43;;;;;;;2.04;42.09;102419.44;4904086;29;20036;-59
2022/12/18 07:39:24;;;;;;;12.43;6.03;;;;;;;2.07;42.86;102414.94;4887814;29;20478;-59
2022/12/18 07:44:34;;;;;;;13.87;6.67;;;;;;;2.10;42.23;102409.56;4903514;29;20142;-59
2022/12/18 07:46:59;;;;;;;14.63;6.03;;;;;;;2.14;42.58;102405.09;4888491;29;20557;-59
2022/12/18 07:49:24;;;;;;;13.70;6.37;;;;;;;2.16;42.42;102392.69;4888433;29;20029;-58
2022/12/18 07:51:50;;;;;;;16.73;6.30;;;;;;;2.13;42.51;102382.19;4904770;29;20049;-58
2022/12/18 07:54:15;;;;;;;14.67;6.73;;;;;;;2.19;42.59;102392.63;4906477;29;20028;-58
2022/12/18 07:56:41;;;;;;;12.80;5.63;;;;;;;2.24;42.95;102388.97;4888283;29;20124;-58
2022/12/18 07:59:06;;;;;;;13.93;5.80;;;;;;;2.25;42.38;102388.06;4901815;29;20036;-59
2022/12/18 08:01:33;;;;;;;15.03;5.57;;;;;;;2.29;42.86;102389.72;4890517;29;20521;-59
2022/12/18 08:03:58;;;;;;;23.03;7.30;;;;;;;2.35;42.87;102386.03;4890656;29;20502;-58
2022/12/18 08:06:23;;;;;;;17.63;7.70;;;;;;;2.39;43.14;102384.19;4906574;29;20039;-58
2022/12/18 08:08:51;;;;;;;11.67;5.77;;;;;;;2.43;43.27;102384.06;4906141;29;20039;-59
2022/12/18 08:11:16;;;;;;;18.90;6.17;;;;;;;2.49;43.22;102383.03;4905603;29;20497;-58
2022/12/18 08:13:41;;;;;;;19.17;7.23;;;;;;;2.53;43.17;102371.50;4906588;29;20084;-59
2022/12/18 08:16:07;;;;;;;16.83;6.37;;;;;;;2.58;42.58;102373.09;4924057;29;20056;-59
2022/12/18 08:18:34;;;;;;;14.10;5.80;;;;;;;2.61;42.93;102373.03;4890853;29;20092;-58
2022/12/18 08:21:18;;;;;;;18.30;7.57;;;;;;;2.65;43.25;102376.47;4907258;29;20089;-58
2022/12/18 08:23:43;;;;;;;;;;;;;;;2.69;42.63;102378.97;4899970;29;20049;-59
2022/12/18 08:26:09;;;;;;;11.67;5.80;;;;;;;2.69;43.22;102373.69;4876852;29;19915;-58
2022/12/18 08:28:35;;;;;;;19.83;6.57;;;;;;;2.71;42.43;102370.97;4876017;29;20151;-60
2022/12/18 08:31:01;;;;;;;15.30;6.23;;;;;;;2.79;42.89;102380.44;4872455;29;20040;-60
2022/12/18 08:33:26;;;;;;;17.83;6.80;;;;;;;2.87;43.49;102380.25;4872586;29;20140;-60
2022/12/18 08:35:52;;;;;;;19.40;6.40;;;;;;;2.91;42.33;102373.97;4873530;29;20380;-60
2022/12/18 08:38:17;;;;;;;14.27;5.73;;;;;;;2.99;41.76;102382.53;4902581;29;20029;-60
2022/12/18 08:40:43;;;;;;;15.23;7.43;;;;;;;3.07;41.51;102382.34;4876891;29;20036;-60
2022/12/18 08:45:54;;;;;;;18.87;6.50;;;;;;;3.18;41.72;102398.81;4885782;29;20455;-60
2022/12/18 08:48:20;;;;;;;16.80;6.60;;;;;;;3.23;42.30;102396.88;4868971;29;20036;-61
2022/12/18 08:50:59;;;;;;;13.57;5.93;;;;;;;3.26;41.58;102392.38;4899323;29;20387;-60
2022/12/18 08:53:25;;;;;;;15.03;5.27;;;;;;;3.32;42.73;102378.09;4884372;29;20096;-60
2022/12/18 08:55:50;;;;;;;15.33;6.20;;;;;;;3.39;43.51;102363.75;4868311;29;20119;-60
2022/12/18 08:58:15;;;;;;;13.23;5.87;;;;;;;3.44;41.68;102353.88;4883937;29;20040;-60
2022/12/18 09:00:41;;;;;;;15.18;7.07;;;;;;;3.50;43.55;102353.69;4884572;29;20430;-59
2022/12/18 09:03:14;;;;;;;12.48;6.10;;;;;;;3.53;41.62;102348.31;4901004;29;20064;-60
2022/12/18 09:05:40;;;;;;;21.48;7.10;;;;;;;3.54;42.10;102350.06;4868974;29;20463;-60
2022/12/18 09:08:05;;;;;;;19.20;7.73;;;;;;;3.59;43.07;102355.19;4900019;29;20131;-59
2022/12/18 09:10:31;;;;;;;13.83;5.57;;;;;;;3.65;41.66;102350.59;4901583;29;20045;-60
2022/12/18 09:12:57;;;;;;;18.63;6.15;;;;;;;3.72;42.16;102345.94;4884013;29;20079;-60
2022/12/18 09:15:22;;;;;;;13.10;5.80;;;;;;;3.82;41.69;102358.88;4869505;29;20041;-60
2022/12/18 09:17:49;;;;;;;16.83;6.27;;;;;;;3.87;42.63;102343.69;4884490;29;20036;-60
2022/12/18 09:20:15;;;;;;;17.40;7.20;;;;;;;3.92;42.61;102341.75;4884922;29;20036;-60
2022/12/18 09:22:41;;;;;;;10.27;5.20;;;;;;;4.05;42.31;102358.97;4884211;29;20100;-60
2022/12/18 09:25:07;;;;;;;18.50;6.30;;;;;;;4.13;42.13;102351.63;4899368;29;20047;-59
2022/12/18 09:27:33;;;;;;;12.63;5.43;;;;;;;4.21;42.73;102348.75;4869442;29;20048;-60
2022/12/18 09:29:59;;;;;;;16.08;6.78;;;;;;;4.31;43.24;102349.28;4884848;29;20036;-60
2022/12/18 09:32:24;;;;;;;14.73;5.97;;;;;;;4.35;43.04;102346.50;4901159;29;20036;-59
2022/12/18 09:34:49;;;;;;;14.57;7.22;;;;;;;4.49;42.68;102351.31;4885672;29;20041;-60
2022/12/18 09:37:15;;;;;;;17.85;7.10;;;;;;;4.57;42.07;102347.50;4885402;29;20067;-60
2022/12/18 09:39:40;;;;;;;18.67;7.00;;;;;;;4.66;42.82;102343.66;4884923;29;20040;-60
2022/12/18 09:42:06;;;;;;;14.70;6.78;;;;;;;4.75;42.63;102340.63;4884849;29;20115;-60
2022/12/18 09:44:39;;;;;;;16.55;7.93;;;;;;;4.82;42.44;102336.84;4884809;29;20184;-60
2022/12/18 09:47:07;;;;;;;11.00;5.78;;;;;;;4.93;41.43;102333.81;4868298;29;20037;-60
2022/12/18 09:49:38;;;;;;;18.38;6.45;;;;;;;5.02;42.11;102339.66;4900389;29;20578;-59
2022/12/18 09:52:09;;;;;;;12.27;6.13;;;;;;;5.11;42.17;102333.97;4884445;29;20032;-60
2022/12/18 09:54:44;;;;;;;20.33;8.50;;;;;;;5.19;42.99;102336.38;4883992;29;20048;-59
2022/12/18 09:57:19;;;;;;;16.48;7.80;;;;;;;5.23;42.67;102316.72;4883509;29;20024;-60
2022/12/18 09:59:50;;;;;;;18.75;7.05;;;;;;;5.34;42.08;102322.50;4882907;29;20051;-60
2022/12/18 10:02:24;;;;;;;18.15;6.70;;;;;;;5.43;42.05;102319.47;4882746;29;20072;-59
2022/12/18 10:05:05;;;;;;;23.40;6.85;;;;;;;5.51;42.26;102316.50;4913626;29;20063;-59
2022/12/18 10:07:46;;;;;;;13.15;6.28;;;;;;;5.60;42.86;102319.69;4867327;29;20085;-60
2022/12/18 10:10:26;;;;;;;16.60;7.07;;;;;;;5.67;41.49;102315.84;4883424;29;20403;-60
2022/12/18 10:13:12;;;;;;;17.23;6.80;;;;;;;5.73;42.22;102317.38;4882997;29;20037;-60
2022/12/18 10:15:56;;;;;;;15.95;7.00;;;;;;;5.82;42.49;102330.31;4867086;29;20044;-60
2022/12/18 10:18:32;;;;;;;15.40;6.35;;;;;;;5.87;41.66;102331.03;4899463;29;20024;-60
2022/12/18 10:21:07;;;;;;;11.68;5.78;;;;;;;5.90;42.97;102314.94;4899853;29;20488;-59
2022/12/18 10:23:50;;;;;;;17.17;7.30;;;;;;;5.94;42.23;102308.59;4866522;29;20137;-59
2022/12/18 10:26:16;;;;;;;15.48;6.38;;;;;;;5.95;41.48;102312.97;4899907;29;20624;-60
2022/12/18 10:28:41;;;;;;;14.52;5.95;;;;;;;5.94;41.25;102308.59;4899508;29;20060;-60
2022/12/18 10:31:15;;;;;;;19.83;7.03;;;;;;;5.97;43.10;102316.44;4882927;29;20032;-59
2022/12/18 10:33:41;;;;;;;20.75;6.85;;;;;;;5.98;42.54;102304.84;4882584;29;20103;-60
2022/12/18 10:36:06;;;;;;;13.90;6.43;;;;;;;5.98;41.98;102302.19;4867665;29;20028;-60
2022/12/18 10:38:32;;;;;;;13.50;6.63;;;;;;;5.98;42.67;102299.53;4899818;29;20043;-61
2022/12/18 10:41:00;;;;;;;22.83;7.13;;;;;;;6.04;41.41;102296.63;4883594;29;20037;-59
2022/12/18 10:43:37;;;;;;;18.60;7.30;;;;;;;6.06;41.54;102293.94;4899409;29;20041;-59
2022/12/18 10:46:02;;;;;;;15.35;6.07;;;;;;;6.05;41.60;102293.06;4867995;29;20120;-60
2022/12/18 10:48:28;;;;;;;17.38;6.22;;;;;;;6.06;43.15;102283.28;4883093;29;20032;-60
2022/12/18 10:50:53;;;;;;;19.77;6.68;;;;;;;6.03;41.86;102278.94;4867521;29;20033;-60
2022/12/18 10:53:24;;;;;;;15.73;6.25;;;;;;;6.04;43.35;102272.69;4852074;29;20085;-60
2022/12/18 10:55:51;;;;;;;16.30;6.32;;;;;;;6.06;42.25;102268.16;4900427;29;20037;-60
2022/12/18 10:58:34;;;;;;;24.80;7.28;;;;;;;6.10;42.14;102266.25;4899220;29;20063;-59
2022/12/18 11:01:15;;;;;;;13.70;5.93;;;;;;;6.11;42.45;102260.88;4868956;29;20040;-60
2022/12/18 11:03:47;;;;;;;12.82;5.97;;;;;;;6.14;42.94;102258.06;4884059;29;20044;-60
2022/12/18 11:06:13;;;;;;;16.27;6.18;;;;;;;6.16;42.71;102253.56;4868373;29;20041;-59
2022/12/18 11:08:40;;;;;;;14.70;6.57;;;;;;;6.18;41.72;102246.38;4882114;29;20043;-59
2022/12/18 11:11:19;;;;;;;16.70;6.88;;;;;;;6.20;42.71;102244.50;4867980;29;20044;-59
2022/12/18 11:14:04;;;;;;;16.30;7.22;;;;;;;6.23;41.80;102238.19;4866862;29;20032;-60
2022/12/18 11:16:35;;;;;;;18.88;7.20;;;;;;;6.22;42.00;102240.00;4867280;29;20037;-60
2022/12/18 11:19:13;;;;;;;12.90;6.47;;;;;;;6.26;43.54;102249.56;4884036;29;20405;-60
2022/12/18 11:21:41;;;;;;;13.50;6.82;;;;;;;6.24;43.21;102247.91;4899134;29;20553;-60
2022/12/18 11:24:23;;;;;;;17.23;6.72;;;;;;;6.28;43.02;102241.53;4867200;29;20112;-60
2022/12/18 11:26:49;;;;;;;14.23;6.45;;;;;;;6.32;42.89;102241.31;4884412;29;20486;-60
2022/12/18 11:29:23;;;;;;;18.08;6.63;;;;;;;6.37;43.31;102241.09;4866508;29;20084;-60
2022/12/18 11:31:49;;;;;;;15.98;6.10;;;;;;;6.40;43.39;102233.84;4882235;29;20094;-60
2022/12/18 11:34:29;;;;;;;12.27;5.85;;;;;;;6.41;42.75;102226.75;4884936;29;20032;-60
2022/12/18 11:36:55;;;;;;;21.35;8.23;;;;;;;6.42;43.33;102233.81;4885776;29;20092;-60
2022/12/18 11:39:31;;;;;;;22.17;7.90;;;;;;;6.44;43.39;102222.16;4886423;29;20044;-59
2022/12/18 11:42:11;;;;;;;20.02;6.78;;;;;;;6.47;42.47;102215.84;4903176;29;20101;-60